Time;durP1;ratioP1;P1;durP2;ratioP2;P2;SDS_P1;SDS_P2;PMS_P1;PMS_P2;Temp;Humidity;BMP_temperature;BMP_pressure;BME280_temperature;BME280_humidity;BME280_pressure;Samples;Min_cycle;Max_cycle;Signal;HPM_P1;HPM_P2
2024/02/14 00:01:16;;;;;;;7.65;5.50;;;7.20;99.90;;;;;;4907417;29;20048;-78
2024/02/14 00:03:43;;;;;;;6.82;6.07;;;7.20;99.90;;;;;;4904962;29;20059;-78
2024/02/14 00:06:11;;;;;;;9.40;5.90;;;7.20;99.90;;;;;;4938599;28;20044;-78
2024/02/14 00:08:39;;;;;;;13.02;6.55;;;7.20;99.90;;;;;;4886725;29;20415;-78
2024/02/14 00:11:06;;;;;;;6.72;5.70;;;7.20;99.90;;;;;;4891500;29;20439;-78
2024/02/14 00:13:34;;;;;;;7.50;6.78;;;7.20;99.90;;;;;;4927656;29;20106;-78
2024/02/14 00:16:02;;;;;;;7.45;6.57;;;7.20;99.90;;;;;;4920379;29;20036;-78
2024/02/14 00:18:30;;;;;;;6.82;5.25;;;7.10;99.90;;;;;;4939247;29;20114;-78
2024/02/14 00:20:57;;;;;;;8.07;5.65;;;7.20;99.90;;;;;;4933295;29;20043;-78
2024/02/14 00:23:25;;;;;;;8.35;5.90;;;7.20;99.90;;;;;;4885705;29;20094;-78
2024/02/14 00:25:52;;;;;;;5.10;4.60;;;7.20;99.90;;;;;;4901520;29;20563;-78
2024/02/14 00:28:19;;;;;;;5.68;4.95;;;7.20;99.90;;;;;;4919491;29;20086;-78
2024/02/14 00:30:46;;;;;;;5.38;4.88;;;7.20;99.90;;;;;;4924526;29;20056;-78
2024/02/14 00:33:13;;;;;;;9.00;5.45;;;7.20;99.90;;;;;;4894183;29;20044;-78
2024/02/14 00:35:41;;;;;;;7.45;5.85;;;7.20;99.90;;;;;;4885051;29;20111;-78
2024/02/14 00:38:08;;;;;;;8.00;5.75;;;7.20;99.90;;;;;;4893160;29;20130;-78
2024/02/14 00:40:36;;;;;;;6.18;5.57;;;7.20;99.90;;;;;;4921263;29;20091;-79
2024/02/14 00:43:03;;;;;;;6.18;5.38;;;7.20;99.90;;;;;;4916888;29;20594;-78
2024/02/14 00:45:31;;;;;;;8.18;7.22;;;7.20;99.90;;;;;;4911760;29;20487;-78
2024/02/14 00:47:58;;;;;;;9.80;8.95;;;7.20;99.90;;;;;;4897515;29;20040;-78
2024/02/14 00:50:25;;;;;;;9.18;8.25;;;7.20;99.90;;;;;;4903042;29;20525;-78
2024/02/14 00:52:53;;;;;;;4.47;3.70;;;7.10;99.90;;;;;;4927799;29;20048;-78
2024/02/14 00:55:20;;;;;;;7.40;6.15;;;7.20;99.90;;;;;;4930541;29;20127;-78
2024/02/14 00:57:47;;;;;;;11.95;10.95;;;7.20;99.90;;;;;;4905525;29;20060;-78
2024/02/14 01:00:17;;;;;;;7.00;6.18;;;7.10;99.90;;;;;;4882653;29;20566;-78
2024/02/14 01:02:44;;;;;;;8.68;7.88;;;7.20;99.90;;;;;;4915497;29;20051;-78
2024/02/14 01:05:11;;;;;;;10.10;9.13;;;7.20;99.90;;;;;;4927582;29;20724;-78
2024/02/14 01:07:38;;;;;;;9.60;8.80;;;7.20;99.90;;;;;;4917452;29;20091;-78
2024/02/14 01:10:06;;;;;;;8.52;7.78;;;7.20;99.90;;;;;;4904781;29;20500;-78
2024/02/14 01:12:33;;;;;;;6.07;5.50;;;7.20;99.90;;;;;;4926557;29;20716;-77
2024/02/14 01:15:01;;;;;;;8.23;7.40;;;7.20;99.90;;;;;;4916111;29;20052;-78
2024/02/14 01:17:28;;;;;;;9.60;7.97;;;7.30;99.90;;;;;;4900195;29;20126;-78
2024/02/14 01:19:55;;;;;;;10.57;9.68;;;7.30;99.90;;;;;;4885242;29;20676;-78
2024/02/14 01:22:23;;;;;;;8.70;7.85;;;7.30;99.90;;;;;;4905377;29;20107;-78
2024/02/14 01:24:50;;;;;;;8.98;8.13;;;7.30;99.90;;;;;;4900201;29;20051;-78
2024/02/14 01:27:18;;;;;;;9.27;6.18;;;7.30;99.90;;;;;;4925751;29;20071;-78
2024/02/14 01:29:45;;;;;;;6.80;6.18;;;7.30;99.90;;;;;;4891317;29;20102;-78
2024/02/14 01:32:13;;;;;;;6.25;5.18;;;7.30;99.90;;;;;;4899061;29;20047;-78
2024/02/14 01:34:42;;;;;;;6.30;5.53;;;7.30;99.90;;;;;;4900069;29;20055;-78
2024/02/14 01:37:09;;;;;;;6.85;5.15;;;7.30;99.90;;;;;;4930453;29;20040;-78
2024/02/14 01:39:37;;;;;;;8.40;7.60;;;7.40;99.90;;;;;;4926645;29;20039;-78
2024/02/14 01:42:07;;;;;;;8.13;7.38;;;7.40;99.90;;;;;;4931730;29;20063;-78
2024/02/14 01:44:36;;;;;;;10.07;9.10;;;7.40;99.90;;;;;;4936888;29;20495;-77
2024/02/14 01:47:03;;;;;;;8.70;7.80;;;7.40;99.90;;;;;;4900154;29;20139;-78
2024/02/14 01:49:31;;;;;;;7.85;7.07;;;7.40;99.90;;;;;;4900444;29;20048;-78
2024/02/14 01:52:02;;;;;;;7.28;6.38;;;7.40;99.90;;;;;;4885322;29;20067;-78
2024/02/14 01:54:30;;;;;;;5.03;4.63;;;7.50;99.90;;;;;;4941638;28;20043;-78
2024/02/14 01:56:58;;;;;;;8.60;7.38;;;7.50;99.90;;;;;;4924385;29;20571;-78
2024/02/14 01:59:26;;;;;;;4.57;4.18;;;7.50;99.90;;;;;;4917266;29;20055;-79
2024/02/14 02:04:57;;;;;;;7.78;7.07;;;7.50;99.90;;;;;;4918592;23;20533;-79
2024/02/14 02:07:25;;;;;;;4.75;4.35;;;7.60;99.90;;;;;;4899943;29;20142;-79
2024/02/14 02:09:52;;;;;;;5.30;4.88;;;7.60;99.90;;;;;;4935316;28;20521;-79
2024/02/14 02:12:27;;;;;;;3.83;3.42;;;7.60;99.90;;;;;;4930803;29;20055;-79
2024/02/14 02:14:54;;;;;;;4.63;4.22;;;7.70;99.90;;;;;;4906952;29;20079;-77
2024/02/14 02:17:21;;;;;;;5.28;4.70;;;7.70;99.90;;;;;;4903700;29;20044;-79
2024/02/14 02:19:49;;;;;;;5.10;4.53;;;7.70;99.90;;;;;;4896687;29;20526;-79
2024/02/14 02:22:16;;;;;;;5.43;4.78;;;7.70;99.90;;;;;;4898366;29;20040;-79
2024/02/14 02:24:45;;;;;;;4.38;3.83;;;7.70;99.90;;;;;;4898479;29;20559;-79
2024/02/14 02:27:13;;;;;;;4.53;4.13;;;7.80;99.90;;;;;;4906957;29;23289;-79
2024/02/14 02:29:40;;;;;;;4.97;4.10;;;7.80;99.90;;;;;;4885381;29;20052;-78
2024/02/14 02:32:09;;;;;;;3.88;3.58;;;7.80;99.90;;;;;;4907870;29;20411;-78
2024/02/14 02:34:38;;;;;;;5.07;4.68;;;7.90;99.90;;;;;;4897554;29;20247;-79
2024/02/14 02:37:07;;;;;;;3.92;3.63;;;7.90;99.90;;;;;;4882593;29;20107;-79
2024/02/14 02:39:35;;;;;;;4.65;4.25;;;7.90;99.90;;;;;;4923151;29;20421;-79
2024/02/14 02:42:03;;;;;;;5.20;4.75;;;8.00;99.90;;;;;;4888291;29;20048;-79
2024/02/14 02:44:31;;;;;;;5.85;5.22;;;8.00;99.90;;;;;;4899086;29;20052;-78
2024/02/14 02:47:00;;;;;;;3.92;3.53;;;8.00;99.90;;;;;;4921386;29;20053;-79
2024/02/14 02:49:29;;;;;;;3.70;3.40;;;8.00;99.90;;;;;;4906983;29;20055;-79
2024/02/14 02:51:56;;;;;;;4.10;3.70;;;8.00;99.90;;;;;;4894188;29;20040;-77
2024/02/14 02:54:23;;;;;;;3.55;3.25;;;8.00;99.90;;;;;;4882559;29;20495;-77
2024/02/14 02:56:50;;;;;;;3.92;3.58;;;8.00;99.90;;;;;;4898204;29;20404;-77
2024/02/14 02:59:17;;;;;;;2.97;2.65;;;8.10;99.90;;;;;;4878990;29;20055;-76
2024/02/14 03:01:45;;;;;;;4.45;4.05;;;8.10;99.90;;;;;;4910146;29;20510;-77
2024/02/14 03:04:16;;;;;;;3.78;3.47;;;8.10;99.90;;;;;;4897491;29;20051;-77
2024/02/14 03:06:44;;;;;;;;;;;8.10;99.90;;;;;;4928475;29;20044;-76
2024/02/14 03:09:14;;;;;;;2.90;2.67;;;8.10;99.90;;;;;;4922158;29;19934;-77
2024/02/14 03:11:41;;;;;;;4.30;3.88;;;8.10;99.90;;;;;;4916394;29;20048;-77
2024/02/14 03:14:08;;;;;;;3.90;3.60;;;8.10;99.90;;;;;;4907654;29;20048;-77
2024/02/14 03:16:37;;;;;;;4.35;3.95;;;8.10;99.90;;;;;;4913594;29;20060;-76
2024/02/14 03:19:05;;;;;;;3.05;2.75;;;8.10;99.90;;;;;;4906793;29;20407;-77
2024/02/14 03:21:32;;;;;;;4.00;3.70;;;8.20;99.90;;;;;;4918824;29;20079;-77
2024/02/14 03:23:59;;;;;;;2.97;2.60;;;8.20;99.90;;;;;;4902654;29;20075;-77
2024/02/14 03:26:27;;;;;;;7.03;3.53;;;8.20;99.90;;;;;;4891288;29;20057;-77
2024/02/14 03:28:54;;;;;;;3.70;3.40;;;8.20;99.90;;;;;;4906172;29;20094;-77
2024/02/14 03:31:21;;;;;;;3.78;3.47;;;8.30;99.90;;;;;;4923628;29;20095;-76
2024/02/14 03:33:49;;;;;;;3.25;3.03;;;8.20;99.90;;;;;;4902434;29;20130;-76
2024/02/14 03:36:16;;;;;;;2.92;2.72;;;8.30;99.90;;;;;;4925446;29;20103;-77
2024/02/14 03:38:43;;;;;;;2.28;2.10;;;8.30;99.90;;;;;;4922488;29;20052;-77
2024/02/14 03:41:10;;;;;;;3.92;3.50;;;8.40;99.90;;;;;;4901981;29;20049;-77
2024/02/14 03:43:38;;;;;;;3.72;2.72;;;8.40;99.90;;;;;;4917441;29;20063;-76
2024/02/14 03:46:05;;;;;;;3.25;2.92;;;8.40;99.90;;;;;;4905575;29;20040;-77
2024/02/14 03:48:32;;;;;;;3.13;2.92;;;8.40;99.90;;;;;;4912602;29;20048;-76
2024/02/14 03:51:00;;;;;;;3.92;3.63;;;8.50;99.90;;;;;;4912302;29;20052;-76
2024/02/14 03:53:27;;;;;;;3.63;3.33;;;8.50;99.90;;;;;;4928068;29;20491;-77
2024/02/14 03:55:54;;;;;;;3.20;2.97;;;8.50;99.90;;;;;;4917937;29;20056;-77
2024/02/14 03:58:22;;;;;;;3.60;3.30;;;8.50;99.90;;;;;;4933423;29;20128;-76
2024/02/14 04:00:52;;;;;;;3.25;2.33;;;8.50;99.90;;;;;;4902356;29;20052;-75
2024/02/14 04:03:19;;;;;;;2.78;2.58;;;8.60;99.90;;;;;;4915313;29;20135;-76
2024/02/14 04:05:47;;;;;;;2.38;2.17;;;8.60;99.90;;;;;;4924737;29;20058;-76
2024/02/14 04:08:15;;;;;;;2.72;2.40;;;8.70;99.90;;;;;;4924890;29;20040;-76
2024/02/14 04:10:43;;;;;;;4.45;3.03;;;8.70;99.90;;;;;;4900034;29;20079;-77
2024/02/14 04:13:11;;;;;;;3.03;2.63;;;8.70;99.90;;;;;;4925719;29;20052;-76
2024/02/14 04:15:38;;;;;;;3.35;3.10;;;8.70;99.90;;;;;;4907534;29;20106;-76
2024/02/14 04:18:06;;;;;;;3.13;2.58;;;8.70;99.90;;;;;;4899677;29;20044;-76
2024/02/14 04:20:36;;;;;;;3.63;3.33;;;8.70;99.90;;;;;;4929177;29;20128;-76
2024/02/14 04:23:06;;;;;;;3.30;3.00;;;8.80;99.90;;;;;;4921408;29;20115;-76
2024/02/14 04:25:35;;;;;;;3.63;3.10;;;8.80;99.90;;;;;;4904077;29;20055;-76
2024/02/14 04:28:06;;;;;;;3.40;3.08;;;8.80;99.90;;;;;;4925213;29;20051;-76
2024/02/14 04:30:33;;;;;;;4.22;3.83;;;8.80;99.90;;;;;;4882636;29;20062;-76
2024/02/14 04:33:00;;;;;;;2.70;2.50;;;8.80;99.90;;;;;;4904789;29;20044;-76
2024/02/14 04:35:28;;;;;;;3.05;2.67;;;8.90;99.90;;;;;;4885921;29;20119;-76
2024/02/14 04:37:55;;;;;;;2.78;2.45;;;8.90;99.90;;;;;;4925006;29;20056;-76
2024/02/14 04:40:22;;;;;;;3.85;3.55;;;8.90;99.90;;;;;;4898816;29;20495;-76
2024/02/14 04:42:50;;;;;;;3.55;3.25;;;8.90;99.90;;;;;;4907702;29;20050;-77
2024/02/14 04:45:17;;;;;;;2.80;2.50;;;9.00;99.90;;;;;;4888444;29;20050;-76
2024/02/14 04:47:44;;;;;;;3.47;3.17;;;9.00;99.90;;;;;;4924568;29;20159;-76
2024/02/14 04:50:11;;;;;;;3.53;3.08;;;9.10;99.90;;;;;;4908768;29;20123;-75
2024/02/14 04:52:38;;;;;;;2.75;2.55;;;9.10;99.90;;;;;;4904748;29;20550;-76
2024/02/14 04:55:06;;;;;;;3.45;3.17;;;9.10;99.90;;;;;;4882242;29;20047;-76
2024/02/14 04:57:35;;;;;;;3.35;3.05;;;9.00;99.90;;;;;;4929440;29;20440;-76
2024/02/14 05:00:05;;;;;;;2.95;2.60;;;9.10;99.90;;;;;;4917441;29;20503;-76
2024/02/14 05:02:32;;;;;;;2.60;2.03;;;9.10;99.90;;;;;;4903687;29;20160;-77
2024/02/14 05:04:59;;;;;;;2.90;2.65;;;9.20;99.90;;;;;;4896469;29;20511;-77
2024/02/14 05:07:27;;;;;;;2.67;2.47;;;9.20;99.90;;;;;;4891423;29;20100;-76
2024/02/14 05:09:56;;;;;;;3.33;3.05;;;9.20;99.90;;;;;;4901464;29;20056;-76
2024/02/14 05:12:23;;;;;;;2.85;2.58;;;9.20;99.90;;;;;;4892423;29;20045;-76
2024/02/14 05:14:50;;;;;;;3.20;3.00;;;9.20;99.90;;;;;;4917921;29;20061;-77
2024/02/14 05:17:17;;;;;;;4.72;3.72;;;9.30;99.90;;;;;;4892388;29;20048;-76
2024/02/14 05:19:45;;;;;;;4.80;4.40;;;9.30;99.90;;;;;;4911779;29;20072;-76
2024/02/14 05:22:12;;;;;;;3.65;3.38;;;9.30;99.90;;;;;;4924375;29;20130;-76
2024/02/14 05:24:39;;;;;;;3.58;3.20;;;9.30;99.90;;;;;;4910812;29;20052;-77
2024/02/14 05:27:06;;;;;;;3.17;2.67;;;9.40;99.90;;;;;;4924110;29;20047;-76
2024/02/14 05:29:33;;;;;;;2.85;2.33;;;9.40;99.90;;;;;;4898315;29;20396;-77
2024/02/14 05:32:02;;;;;;;3.35;2.78;;;9.40;99.90;;;;;;4918012;29;20083;-77
2024/02/14 05:34:29;;;;;;;3.78;3.42;;;9.50;99.90;;;;;;4904394;29;20103;-76
2024/02/14 05:36:57;;;;;;;3.65;2.50;;;9.50;99.90;;;;;;4898009;29;20148;-76
2024/02/14 05:39:24;;;;;;;5.20;4.70;;;9.50;99.90;;;;;;4921013;29;20036;-77
2024/02/14 05:41:54;;;;;;;2.90;2.58;;;9.50;99.90;;;;;;4879575;29;20052;-77
2024/02/14 05:44:22;;;;;;;3.25;2.92;;;9.50;99.90;;;;;;4904342;29;20040;-76
2024/02/14 05:46:49;;;;;;;5.18;4.78;;;9.60;99.90;;;;;;4881595;29;20048;-75
2024/02/14 05:49:16;;;;;;;3.03;2.72;;;9.60;99.90;;;;;;4909216;29;20498;-77
2024/02/14 05:51:44;;;;;;;3.13;2.83;;;9.60;99.90;;;;;;4922777;29;20104;-76
2024/02/14 05:54:11;;;;;;;3.85;3.42;;;10.00;99.90;;;;;;4913282;29;20127;-76
2024/02/14 05:56:39;;;;;;;5.53;5.03;;;9.70;99.90;;;;;;4910418;29;20240;-76
2024/02/14 05:59:06;;;;;;;4.03;3.63;;;9.70;99.90;;;;;;4929411;29;20058;-76
2024/02/14 06:01:33;;;;;;;4.47;3.67;;;9.70;99.90;;;;;;4918941;29;20120;-77
2024/02/14 06:04:00;;;;;;;3.53;3.22;;;9.70;99.90;;;;;;4899994;29;20393;-76
2024/02/14 06:06:27;;;;;;;3.80;3.45;;;9.70;99.90;;;;;;4885173;29;20044;-76
2024/02/14 06:08:57;;;;;;;4.03;3.13;;;9.80;99.90;;;;;;4884868;29;20075;-77
2024/02/14 06:11:25;;;;;;;4.20;3.80;;;9.80;99.90;;;;;;4914747;29;20099;-76
2024/02/14 06:13:53;;;;;;;3.38;3.08;;;9.80;99.90;;;;;;4895389;29;20052;-76
2024/02/14 06:16:20;;;;;;;3.45;3.15;;;9.80;99.90;;;;;;4911276;29;20079;-76
2024/02/14 06:18:47;;;;;;;4.00;3.60;;;9.80;99.90;;;;;;4897405;29;20056;-79
2024/02/14 06:21:14;;;;;;;2.67;2.47;;;9.80;99.90;;;;;;4897600;29;20131;-77
2024/02/14 06:23:41;;;;;;;4.60;4.25;;;9.90;99.90;;;;;;4915748;29;20037;-77
2024/02/14 06:26:09;;;;;;;3.03;2.72;;;9.80;99.90;;;;;;4912817;29;20048;-77
2024/02/14 06:28:36;;;;;;;3.03;2.83;;;9.90;99.90;;;;;;4901438;29;20067;-77
2024/02/14 06:31:04;;;;;;;3.40;2.85;;;9.90;99.90;;;;;;4920405;29;20054;-77
2024/02/14 06:33:31;;;;;;;2.58;2.38;;;9.90;99.90;;;;;;4909611;29;20055;-76
2024/02/14 06:35:59;;;;;;;3.50;2.70;;;9.90;99.90;;;;;;4933383;29;20098;-76
2024/02/14 06:38:26;;;;;;;3.65;3.35;;;9.90;99.90;;;;;;4925981;29;20108;-76
2024/02/14 06:40:53;;;;;;;2.78;2.30;;;9.90;99.90;;;;;;4918623;29;20101;-77
2024/02/14 06:43:22;;;;;;;3.50;3.20;;;9.90;99.90;;;;;;4886241;29;20075;-76
2024/02/14 06:45:51;;;;;;;3.67;3.38;;;10.00;99.90;;;;;;4918026;29;20047;-77
2024/02/14 06:48:23;;;;;;;2.88;2.65;;;10.00;99.90;;;;;;4914044;29;20054;-77
2024/02/14 06:50:51;;;;;;;2.47;2.22;;;10.00;99.90;;;;;;4887220;29;20043;-76
2024/02/14 06:53:18;;;;;;;3.38;3.08;;;10.00;99.90;;;;;;4907579;29;20534;-77
2024/02/14 06:55:45;;;;;;;2.75;2.30;;;10.00;99.90;;;;;;4899107;29;20048;-77
2024/02/14 06:58:13;;;;;;;2.60;2.40;;;10.00;99.90;;;;;;4918834;29;20111;-77
2024/02/14 07:00:41;;;;;;;2.67;2.38;;;10.00;99.90;;;;;;4917455;29;20051;-76
2024/02/14 07:03:08;;;;;;;3.20;2.30;;;10.10;99.90;;;;;;4916501;29;20076;-77
2024/02/14 07:05:36;;;;;;;2.00;1.83;;;10.10;99.90;;;;;;4884881;29;20052;-77
2024/02/14 07:08:04;;;;;;;3.80;3.50;;;10.10;99.90;;;;;;4912032;29;20050;-76
2024/02/14 07:10:33;;;;;;;4.15;3.67;;;10.10;99.90;;;;;;4922260;29;20138;-77
2024/02/14 07:13:00;;;;;;;3.65;3.28;;;10.10;99.90;;;;;;4889019;29;20078;-79
2024/02/14 07:15:28;;;;;;;4.68;4.38;;;10.10;99.90;;;;;;4923708;29;20052;-77
2024/02/14 07:17:57;;;;;;;6.70;4.32;;;10.10;99.90;;;;;;4922260;29;20135;-76
2024/02/14 07:20:26;;;;;;;6.95;4.72;;;10.20;99.90;;;;;;4886015;29;20487;-77
2024/02/14 07:22:55;;;;;;;8.23;6.50;;;10.20;99.90;;;;;;4913432;29;20103;-77
2024/02/14 07:25:22;;;;;;;4.75;3.95;;;10.20;99.90;;;;;;4911713;29;20047;-77
2024/02/14 07:27:50;;;;;;;9.52;4.72;;;10.20;99.90;;;;;;4904802;29;20519;-79
2024/02/14 07:30:17;;;;;;;10.88;7.22;;;10.30;99.90;;;;;;4913581;29;20055;-76
2024/02/14 07:32:45;;;;;;;8.68;7.13;;;10.30;99.90;;;;;;4888137;29;20071;-76
2024/02/14 07:35:16;;;;;;;6.47;5.30;;;10.30;99.90;;;;;;4895302;29;20138;-76
2024/02/14 07:37:43;;;;;;;8.82;6.60;;;10.30;99.90;;;;;;4882234;29;20047;-76
2024/02/14 07:40:12;;;;;;;9.00;6.72;;;10.30;99.90;;;;;;4927356;29;20044;-76
2024/02/14 07:42:41;;;;;;;10.57;9.48;;;10.40;99.90;;;;;;4920223;29;20048;-76
2024/02/14 07:45:08;;;;;;;9.75;7.38;;;10.40;99.90;;;;;;4911174;29;20123;-76
2024/02/14 07:47:35;;;;;;;9.85;6.65;;;10.40;99.90;;;;;;4912049;29;20040;-77
2024/02/14 07:50:03;;;;;;;9.20;5.82;;;10.50;99.90;;;;;;4909687;29;20055;-76
2024/02/14 07:52:31;;;;;;;14.48;7.10;;;10.50;99.90;;;;;;4899866;29;20059;-76
2024/02/14 07:55:01;;;;;;;8.48;6.00;;;10.50;99.90;;;;;;4884746;29;20052;-76
2024/02/14 07:57:28;;;;;;;7.25;5.63;;;10.50;99.90;;;;;;4900979;29;20076;-78
2024/02/14 07:59:55;;;;;;;6.85;4.60;;;10.50;99.90;;;;;;4923501;29;20131;-77
2024/02/14 08:02:22;;;;;;;6.15;4.90;;;10.50;99.90;;;;;;4916286;29;20044;-77
2024/02/14 08:04:49;;;;;;;6.13;4.13;;;10.50;99.90;;;;;;4899869;29;20059;-77
2024/02/14 08:07:18;;;;;;;5.85;4.07;;;10.60;99.90;;;;;;4887011;29;20060;-77
2024/02/14 08:09:46;;;;;;;7.68;3.88;;;10.60;99.90;;;;;;4899020;29;20498;-77
2024/02/14 08:12:13;;;;;;;4.53;3.67;;;10.60;99.90;;;;;;4912695;29;20494;-77
2024/02/14 08:14:41;;;;;;;5.53;3.85;;;10.60;99.90;;;;;;4928736;29;20054;-77
2024/02/14 08:17:08;;;;;;;7.50;5.38;;;10.60;99.90;;;;;;4912955;29;20451;-77
2024/02/14 08:19:36;;;;;;;7.07;4.80;;;10.60;99.90;;;;;;4931688;29;20040;-77
2024/02/14 08:22:03;;;;;;;6.70;4.80;;;10.60;99.90;;;;;;4925730;29;20044;-77
2024/02/14 08:24:30;;;;;;;6.68;6.00;;;10.60;99.90;;;;;;4912356;29;20047;-77
2024/02/14 08:26:58;;;;;;;4.00;3.42;;;10.70;99.90;;;;;;4911457;29;20040;-77
2024/02/14 08:29:25;;;;;;;5.00;4.55;;;10.60;99.90;;;;;;4881333;29;20040;-77
2024/02/14 08:31:53;;;;;;;9.52;4.88;;;10.60;99.90;;;;;;4908788;29;20052;-77
2024/02/14 08:34:20;;;;;;;7.82;6.65;;;10.70;99.90;;;;;;4888740;29;20059;-77
2024/02/14 08:36:47;;;;;;;6.20;3.60;;;10.70;99.90;;;;;;4938144;29;20052;-78
2024/02/14 08:39:14;;;;;;;7.18;6.18;;;10.70;99.90;;;;;;4923053;29;20067;-77
2024/02/14 08:41:44;;;;;;;6.28;4.63;;;10.70;99.90;;;;;;4886181;29;20052;-78
2024/02/14 08:44:12;;;;;;;4.35;3.35;;;10.70;99.90;;;;;;4913336;29;20052;-77
2024/02/14 08:46:39;;;;;;;5.50;4.95;;;10.80;99.90;;;;;;4882346;29;20040;-77
2024/02/14 08:49:08;;;;;;;6.70;5.20;;;10.80;99.90;;;;;;4913042;29;20108;-77
2024/02/14 08:51:38;;;;;;;6.93;5.07;;;10.90;99.90;;;;;;4903957;29;20042;-77
2024/02/14 08:54:06;;;;;;;5.97;4.65;;;10.90;99.90;;;;;;4910794;29;20099;-78
2024/02/14 08:56:33;;;;;;;8.38;5.15;;;10.90;99.90;;;;;;4897364;29;20055;-77
2024/02/14 08:59:02;;;;;;;11.65;6.18;;;11.00;99.90;;;;;;4895337;29;20080;-77
2024/02/14 09:01:30;;;;;;;10.00;6.60;;;11.00;99.90;;;;;;4904956;29;20036;-77
2024/02/14 09:03:58;;;;;;;12.07;7.10;;;11.00;99.90;;;;;;4890117;29;20043;-77
2024/02/14 09:06:26;;;;;;;11.15;6.90;;;10.90;99.90;;;;;;4916293;29;20044;-77
2024/02/14 09:08:54;;;;;;;14.73;10.20;;;10.90;99.90;;;;;;4899537;29;20075;-78
2024/02/14 09:11:22;;;;;;;12.40;9.60;;;10.90;99.90;;;;;;4901871;29;20052;-77
2024/02/14 09:13:53;;;;;;;11.98;6.53;;;10.90;99.90;;;;;;4889358;29;20057;-77
2024/02/14 09:16:22;;;;;;;13.48;10.43;;;10.90;99.90;;;;;;4904788;29;20126;-77
2024/02/14 09:18:50;;;;;;;10.70;6.28;;;10.90;99.90;;;;;;4925510;29;20048;-77
2024/02/14 09:21:17;;;;;;;11.93;8.82;;;10.90;99.90;;;;;;4899866;29;20048;-77
2024/02/14 09:23:47;;;;;;;10.68;6.97;;;10.90;99.90;;;;;;4906613;29;20040;-77
2024/02/14 09:26:16;;;;;;;12.30;8.13;;;10.90;99.90;;;;;;4887269;29;20503;-77
2024/02/14 09:28:43;;;;;;;13.02;8.65;;;11.00;99.90;;;;;;4920446;29;20495;-77
2024/02/14 09:31:12;;;;;;;13.65;8.65;;;11.00;99.90;;;;;;4920293;29;20048;-77
2024/02/14 09:33:39;;;;;;;12.90;8.18;;;11.00;99.90;;;;;;4907589;29;20050;-77
2024/02/14 09:36:07;;;;;;;16.27;12.38;;;11.00;99.90;;;;;;4916888;29;20075;-77
2024/02/14 09:38:35;;;;;;;14.57;9.68;;;11.00;99.90;;;;;;4899369;29;20066;-78
2024/02/14 09:41:16;;;;;;;17.10;9.80;;;11.00;99.90;;;;;;4886596;29;20052;-78
2024/02/14 09:43:44;;;;;;;15.00;9.75;;;11.00;99.90;;;;;;4889651;29;20138;-79
2024/02/14 09:46:15;;;;;;;14.80;13.15;;;11.00;99.90;;;;;;4909184;29;20072;-78
2024/02/14 09:48:44;;;;;;;15.73;9.52;;;11.10;99.90;;;;;;4890531;29;20048;-78
2024/02/14 09:51:12;;;;;;;17.27;9.93;;;11.10;99.90;;;;;;4903444;29;20527;-78
2024/02/14 09:53:40;;;;;;;17.77;10.20;;;11.10;99.90;;;;;;4902543;29;20489;-78
2024/02/14 09:56:13;;;;;;;18.67;10.63;;;11.10;99.90;;;;;;4900905;29;20040;-78
2024/02/14 09:58:41;;;;;;;17.23;12.52;;;11.20;99.90;;;;;;4897057;29;20159;-78
2024/02/14 10:01:08;;;;;;;15.30;12.00;;;11.20;99.90;;;;;;4915326;29;20111;-76
2024/02/14 10:03:36;;;;;;;14.30;9.27;;;11.20;99.90;;;;;;4914831;29;20044;-76
2024/02/14 10:06:04;;;;;;;14.07;7.97;;;11.20;99.90;;;;;;4921891;29;20044;-76
2024/02/14 10:08:32;;;;;;;15.55;10.07;;;11.20;99.90;;;;;;4877792;29;20130;-76
2024/02/14 10:10:59;;;;;;;14.05;10.07;;;11.30;99.90;;;;;;4914766;29;20040;-76
2024/02/14 10:13:28;;;;;;;12.20;9.38;;;11.20;99.90;;;;;;4885197;29;20131;-76
2024/02/14 10:15:56;;;;;;;11.98;8.30;;;11.20;99.90;;;;;;4906150;29;20087;-76
2024/02/14 10:18:23;;;;;;;12.65;9.45;;;11.20;99.90;;;;;;4899714;29;20135;-76
2024/02/14 10:20:57;;;;;;;14.48;10.65;;;11.20;99.90;;;;;;4887905;29;20545;-76
2024/02/14 10:23:24;;;;;;;16.25;10.15;;;11.20;99.90;;;;;;4916325;29;20487;-76
2024/02/14 10:25:55;;;;;;;15.25;10.23;;;11.30;99.90;;;;;;4912893;29;20040;-76
2024/02/14 10:28:24;;;;;;;12.00;10.13;;;11.30;99.90;;;;;;4898953;29;20048;-76
2024/02/14 10:30:56;;;;;;;12.20;8.43;;;11.30;99.90;;;;;;4886052;29;20083;-77
2024/02/14 10:33:23;;;;;;;12.57;8.20;;;11.40;99.90;;;;;;4879880;29;20074;-78
2024/02/14 10:35:54;;;;;;;12.50;7.35;;;11.50;99.90;;;;;;4885768;29;20048;-78
2024/02/14 10:38:25;;;;;;;11.18;7.57;;;11.50;99.90;;;;;;4880910;29;20048;-78
2024/02/14 10:40:54;;;;;;;12.32;10.40;;;11.50;99.90;;;;;;4900728;29;20084;-77
2024/02/14 10:43:21;;;;;;;13.07;8.77;;;11.60;99.90;;;;;;4870612;29;20044;-78
2024/02/14 10:45:49;;;;;;;15.68;11.20;;;11.60;99.90;;;;;;4907092;29;20044;-78
2024/02/14 10:48:18;;;;;;;14.40;9.30;;;11.60;99.90;;;;;;4919392;29;20048;-78
2024/02/14 10:50:49;;;;;;;11.80;8.40;;;11.60;99.90;;;;;;4901067;29;20135;-78
2024/02/14 10:53:16;;;;;;;;;;;11.60;99.90;;;;;;4912541;29;20048;-78
2024/02/14 10:55:49;;;;;;;13.45;11.38;;;11.60;99.90;;;;;;4903457;29;19931;-78
2024/02/14 10:58:16;;;;;;;13.05;10.98;;;11.60;99.90;;;;;;4925828;29;20044;-78
2024/02/14 11:00:45;;;;;;;10.02;7.50;;;11.60;99.90;;;;;;4900092;29;20052;-78
2024/02/14 11:03:15;;;;;;;15.73;10.10;;;11.60;99.90;;;;;;4890618;29;20075;-78
2024/02/14 11:05:46;;;;;;;18.35;14.45;;;11.60;99.90;;;;;;4908892;29;20044;-78
2024/02/14 11:08:21;;;;;;;19.67;17.00;;;11.60;99.90;;;;;;4919556;29;20047;-78
2024/02/14 11:10:56;;;;;;;15.55;12.73;;;11.50;99.90;;;;;;4903819;29;20115;-78
2024/02/14 11:13:28;;;;;;;12.45;8.45;;;11.50;99.90;;;;;;4911875;29;20064;-78
2024/02/14 11:15:56;;;;;;;14.70;9.23;;;11.60;99.90;;;;;;4887374;29;20392;-77
2024/02/14 11:18:33;;;;;;;10.75;7.28;;;11.60;99.90;;;;;;4924549;29;20044;-78
2024/02/14 11:21:04;;;;;;;9.13;6.85;;;11.70;99.90;;;;;;4903259;29;20491;-77
2024/02/14 11:23:31;;;;;;;;;;;11.80;99.90;;;;;;4892196;29;20197;-78
2024/02/14 11:26:05;;;;;;;11.50;8.95;;;11.80;99.90;;;;;;4902817;29;19986;-77
2024/02/14 11:28:39;;;;;;;10.80;8.07;;;11.70;99.90;;;;;;4899439;29;20104;-78
2024/02/14 11:31:09;;;;;;;12.60;8.35;;;11.60;99.90;;;;;;4912211;29;20127;-78
2024/02/14 11:33:39;;;;;;;14.13;12.60;;;11.70;99.90;;;;;;4910224;29;20570;-78
2024/02/14 11:36:10;;;;;;;9.40;7.15;;;11.60;99.90;;;;;;4916167;29;20044;-78
2024/02/14 11:38:40;;;;;;;11.88;8.70;;;11.60;99.90;;;;;;4926416;29;20052;-78
2024/02/14 11:41:10;;;;;;;11.63;8.05;;;11.60;99.90;;;;;;4899022;29;20067;-78
2024/02/14 11:43:39;;;;;;;16.27;14.57;;;11.60;99.90;;;;;;4901555;29;20040;-78
2024/02/14 11:46:06;;;;;;;10.48;7.55;;;11.60;99.90;;;;;;4883555;29;20059;-78
2024/02/14 11:48:34;;;;;;;15.40;10.60;;;11.60;99.90;;;;;;4901262;29;20502;-78
2024/02/14 11:51:01;;;;;;;11.85;8.70;;;11.70;99.90;;;;;;4916779;29;20546;-78
2024/02/14 11:53:29;;;;;;;13.60;11.40;;;11.70;99.90;;;;;;4878605;29;20144;-78
2024/02/14 11:55:56;;;;;;;13.05;11.60;;;11.70;99.90;;;;;;4878983;29;20511;-78
2024/02/14 11:58:24;;;;;;;18.15;15.50;;;11.70;99.90;;;;;;4906644;29;20155;-78
2024/02/14 12:00:51;;;;;;;15.48;13.02;;;11.60;99.90;;;;;;4885413;29;20561;-78
2024/02/14 12:03:25;;;;;;;19.70;15.98;;;11.60;99.90;;;;;;4896454;29;20047;-78
2024/02/14 12:05:53;;;;;;;14.52;12.63;;;11.60;99.90;;;;;;4887548;29;20037;-78
2024/02/14 12:08:22;;;;;;;15.48;13.77;;;11.60;99.90;;;;;;4875730;29;20076;-78
2024/02/14 12:10:49;;;;;;;13.98;11.20;;;11.70;99.90;;;;;;4897174;29;20052;-78
2024/02/14 12:13:21;;;;;;;17.63;14.20;;;11.70;99.90;;;;;;4895492;29;20048;-78
2024/02/14 12:15:51;;;;;;;11.45;10.15;;;11.70;99.90;;;;;;4878345;29;20056;-78
2024/02/14 12:18:21;;;;;;;14.95;12.48;;;11.80;99.90;;;;;;4898544;29;20072;-77
2024/02/14 12:20:50;;;;;;;11.70;10.35;;;11.80;99.90;;;;;;4914561;29;20051;-78
2024/02/14 12:23:21;;;;;;;12.93;10.48;;;11.80;99.90;;;;;;4901805;29;20072;-79
2024/02/14 12:25:49;;;;;;;11.02;9.93;;;11.80;99.90;;;;;;4896117;29;20056;-78
2024/02/14 12:28:17;;;;;;;12.07;10.82;;;11.80;99.90;;;;;;4889703;29;20040;-78
2024/02/14 12:30:49;;;;;;;10.43;6.70;;;11.90;99.90;;;;;;4900548;29;20056;-77
2024/02/14 12:33:17;;;;;;;10.23;8.30;;;11.90;99.90;;;;;;4900405;29;20044;-78
2024/02/14 12:35:47;;;;;;;11.07;9.55;;;11.90;99.90;;;;;;4897697;29;20048;-78
2024/02/14 12:38:16;;;;;;;12.90;11.55;;;11.90;99.90;;;;;;4881460;29;20059;-77
2024/02/14 12:40:44;;;;;;;11.48;10.27;;;11.90;99.90;;;;;;4905495;29;20499;-77
2024/02/14 12:43:13;;;;;;;10.65;8.45;;;11.90;99.90;;;;;;4916272;29;20056;-77
2024/02/14 12:45:41;;;;;;;9.98;8.98;;;11.80;99.90;;;;;;4887304;29;20048;-77
2024/02/14 12:48:10;;;;;;;9.77;8.55;;;11.90;99.90;;;;;;4919446;29;20056;-77
2024/02/14 12:50:38;;;;;;;8.93;8.13;;;12.00;99.90;;;;;;4908404;29;20163;-77
2024/02/14 12:53:06;;;;;;;9.95;8.32;;;12.00;99.90;;;;;;4904115;29;20495;-78
2024/02/14 12:55:35;;;;;;;8.73;7.70;;;12.10;99.90;;;;;;4913153;29;20044;-77